sensor_id;sensor_type;location;lat;lon;timestamp;P1;durP1;ratioP1;P2;durP2;ratioP2
76900;SDS011;65859;43.020;25.096;2023-06-19T00:01:23;12.60;;;10.30;;
76900;SDS011;65859;43.020;25.096;2023-06-19T00:03:49;17.52;;;10.13;;
76900;SDS011;65859;43.020;25.096;2023-06-19T00:06:15;12.13;;;10.77;;
76900;SDS011;65859;43.020;25.096;2023-06-19T00:08:42;15.98;;;10.88;;
76900;SDS011;65859;43.020;25.096;2023-06-19T00:11:08;14.25;;;10.55;;
76900;SDS011;65859;43.020;25.096;2023-06-19T00:13:34;15.25;;;10.90;;
76900;SDS011;65859;43.020;25.096;2023-06-19T00:16:01;14.05;;;9.68;;
76900;SDS011;65859;43.020;25.096;2023-06-19T00:18:27;14.80;;;10.45;;
76900;SDS011;65859;43.020;25.096;2023-06-19T00:20:54;11.90;;;9.85;;
76900;SDS011;65859;43.020;25.096;2023-06-19T00:23:23;11.25;;;9.93;;
76900;SDS011;65859;43.020;25.096;2023-06-19T00:25:50;10.52;;;9.45;;
76900;SDS011;65859;43.020;25.096;2023-06-19T00:28:16;14.48;;;11.57;;
76900;SDS011;65859;43.020;25.096;2023-06-19T00:30:45;12.98;;;8.88;;
76900;SDS011;65859;43.020;25.096;2023-06-19T00:33:12;18.13;;;11.95;;
76900;SDS011;65859;43.020;25.096;2023-06-19T00:35:38;14.23;;;10.73;;
76900;SDS011;65859;43.020;25.096;2023-06-19T00:38:07;17.70;;;11.27;;
76900;SDS011;65859;43.020;25.096;2023-06-19T00:40:33;16.40;;;11.70;;
76900;SDS011;65859;43.020;25.096;2023-06-19T00:43:00;16.27;;;11.73;;
76900;SDS011;65859;43.020;25.096;2023-06-19T00:45:27;17.60;;;12.18;;
76900;SDS011;65859;43.020;25.096;2023-06-19T00:47:54;16.13;;;11.50;;
76900;SDS011;65859;43.020;25.096;2023-06-19T00:50:21;14.95;;;11.70;;
76900;SDS011;65859;43.020;25.096;2023-06-19T00:52:48;21.88;;;12.77;;
76900;SDS011;65859;43.020;25.096;2023-06-19T00:55:15;14.10;;;12.27;;
76900;SDS011;65859;43.020;25.096;2023-06-19T00:57:42;14.27;;;10.88;;
76900;SDS011;65859;43.020;25.096;2023-06-19T01:00:10;15.00;;;11.68;;
76900;SDS011;65859;43.020;25.096;2023-06-19T01:02:38;16.70;;;11.05;;
76900;SDS011;65859;43.020;25.096;2023-06-19T01:05:04;15.20;;;11.98;;
76900;SDS011;65859;43.020;25.096;2023-06-19T01:07:32;16.05;;;10.93;;
76900;SDS011;65859;43.020;25.096;2023-06-19T01:10:18;23.42;;;11.43;;
76900;SDS011;65859;43.020;25.096;2023-06-19T01:16:02;18.40;;;11.55;;
76900;SDS011;65859;43.020;25.096;2023-06-19T01:18:30;14.30;;;10.82;;
76900;SDS011;65859;43.020;25.096;2023-06-19T01:20:57;18.33;;;11.15;;
76900;SDS011;65859;43.020;25.096;2023-06-19T01:23:40;53.58;;;12.40;;
76900;SDS011;65859;43.020;25.096;2023-06-19T01:26:07;16.92;;;12.25;;
76900;SDS011;65859;43.020;25.096;2023-06-19T01:28:34;17.20;;;11.90;;
76900;SDS011;65859;43.020;25.096;2023-06-19T01:31:15;17.23;;;11.88;;
76900;SDS011;65859;43.020;25.096;2023-06-19T01:33:50;14.35;;;10.93;;
76900;SDS011;65859;43.020;25.096;2023-06-19T01:36:19;17.45;;;11.23;;
76900;SDS011;65859;43.020;25.096;2023-06-19T01:38:47;16.23;;;11.38;;
76900;SDS011;65859;43.020;25.096;2023-06-19T01:41:15;13.82;;;11.05;;
76900;SDS011;65859;43.020;25.096;2023-06-19T01:43:42;19.77;;;10.68;;
76900;SDS011;65859;43.020;25.096;2023-06-19T01:46:10;18.33;;;10.93;;
76900;SDS011;65859;43.020;25.096;2023-06-19T01:48:37;15.10;;;10.45;;
76900;SDS011;65859;43.020;25.096;2023-06-19T01:51:04;15.90;;;11.13;;
76900;SDS011;65859;43.020;25.096;2023-06-19T01:53:31;15.05;;;10.20;;
76900;SDS011;65859;43.020;25.096;2023-06-19T01:55:58;15.35;;;11.48;;
76900;SDS011;65859;43.020;25.096;2023-06-19T01:58:24;15.82;;;10.90;;
76900;SDS011;65859;43.020;25.096;2023-06-19T02:00:51;16.45;;;9.75;;
76900;SDS011;65859;43.020;25.096;2023-06-19T02:03:17;17.15;;;11.20;;
76900;SDS011;65859;43.020;25.096;2023-06-19T02:05:43;19.45;;;10.05;;
76900;SDS011;65859;43.020;25.096;2023-06-19T02:08:09;19.23;;;11.40;;
76900;SDS011;65859;43.020;25.096;2023-06-19T02:10:36;14.18;;;10.30;;
76900;SDS011;65859;43.020;25.096;2023-06-19T02:13:02;14.90;;;10.90;;
76900;SDS011;65859;43.020;25.096;2023-06-19T02:15:29;14.30;;;9.70;;
76900;SDS011;65859;43.020;25.096;2023-06-19T02:17:55;18.00;;;10.52;;
76900;SDS011;65859;43.020;25.096;2023-06-19T02:20:22;18.10;;;11.27;;
76900;SDS011;65859;43.020;25.096;2023-06-19T02:22:52;15.82;;;10.82;;
76900;SDS011;65859;43.020;25.096;2023-06-19T02:25:18;18.00;;;10.07;;
76900;SDS011;65859;43.020;25.096;2023-06-19T02:27:45;15.70;;;11.63;;
76900;SDS011;65859;43.020;25.096;2023-06-19T02:30:11;15.02;;;10.27;;
76900;SDS011;65859;43.020;25.096;2023-06-19T02:32:37;14.88;;;9.93;;
76900;SDS011;65859;43.020;25.096;2023-06-19T02:35:05;12.98;;;9.95;;
76900;SDS011;65859;43.020;25.096;2023-06-19T02:37:34;15.27;;;9.65;;
76900;SDS011;65859;43.020;25.096;2023-06-19T02:40:06;17.42;;;9.85;;
76900;SDS011;65859;43.020;25.096;2023-06-19T02:42:34;14.38;;;10.82;;
76900;SDS011;65859;43.020;25.096;2023-06-19T02:45:00;18.88;;;9.65;;
76900;SDS011;65859;43.020;25.096;2023-06-19T02:47:30;22.52;;;11.30;;
76900;SDS011;65859;43.020;25.096;2023-06-19T02:50:00;15.98;;;9.15;;
76900;SDS011;65859;43.020;25.096;2023-06-19T02:52:28;15.18;;;10.07;;
76900;SDS011;65859;43.020;25.096;2023-06-19T02:54:54;17.40;;;9.93;;
76900;SDS011;65859;43.020;25.096;2023-06-19T02:57:21;17.05;;;10.55;;
76900;SDS011;65859;43.020;25.096;2023-06-19T02:59:47;15.27;;;9.77;;
76900;SDS011;65859;43.020;25.096;2023-06-19T03:02:13;15.00;;;10.00;;
76900;SDS011;65859;43.020;25.096;2023-06-19T03:04:40;18.30;;;10.70;;
76900;SDS011;65859;43.020;25.096;2023-06-19T03:07:12;12.70;;;10.02;;
76900;SDS011;65859;43.020;25.096;2023-06-19T03:09:41;13.65;;;9.82;;
76900;SDS011;65859;43.020;25.096;2023-06-19T03:12:08;14.05;;;10.65;;
76900;SDS011;65859;43.020;25.096;2023-06-19T03:14:34;16.58;;;10.40;;
76900;SDS011;65859;43.020;25.096;2023-06-19T03:17:01;13.80;;;10.20;;
76900;SDS011;65859;43.020;25.096;2023-06-19T03:19:27;14.23;;;10.70;;
76900;SDS011;65859;43.020;25.096;2023-06-19T03:21:53;11.93;;;9.10;;
76900;SDS011;65859;43.020;25.096;2023-06-19T03:24:20;13.93;;;10.18;;
76900;SDS011;65859;43.020;25.096;2023-06-19T03:26:46;15.85;;;9.98;;
76900;SDS011;65859;43.020;25.096;2023-06-19T03:29:12;13.05;;;9.35;;
76900;SDS011;65859;43.020;25.096;2023-06-19T03:31:38;15.20;;;9.70;;
76900;SDS011;65859;43.020;25.096;2023-06-19T03:34:05;13.73;;;8.95;;
76900;SDS011;65859;43.020;25.096;2023-06-19T03:36:31;19.38;;;9.50;;
76900;SDS011;65859;43.020;25.096;2023-06-19T03:38:57;15.77;;;9.23;;
76900;SDS011;65859;43.020;25.096;2023-06-19T03:41:24;14.35;;;9.48;;
76900;SDS011;65859;43.020;25.096;2023-06-19T03:43:50;14.40;;;10.45;;
76900;SDS011;65859;43.020;25.096;2023-06-19T03:46:16;12.20;;;9.48;;
76900;SDS011;65859;43.020;25.096;2023-06-19T03:48:42;15.95;;;9.68;;
76900;SDS011;65859;43.020;25.096;2023-06-19T03:51:09;12.25;;;8.88;;
76900;SDS011;65859;43.020;25.096;2023-06-19T03:53:35;15.23;;;8.80;;
76900;SDS011;65859;43.020;25.096;2023-06-19T03:56:01;16.08;;;9.13;;
76900;SDS011;65859;43.020;25.096;2023-06-19T03:58:28;14.18;;;9.63;;
76900;SDS011;65859;43.020;25.096;2023-06-19T04:00:54;15.90;;;9.45;;
76900;SDS011;65859;43.020;25.096;2023-06-19T04:03:20;15.38;;;8.82;;
76900;SDS011;65859;43.020;25.096;2023-06-19T04:05:46;13.20;;;9.70;;
76900;SDS011;65859;43.020;25.096;2023-06-19T04:08:13;15.32;;;8.98;;
76900;SDS011;65859;43.020;25.096;2023-06-19T04:10:39;14.20;;;9.07;;
76900;SDS011;65859;43.020;25.096;2023-06-19T04:13:05;13.38;;;9.65;;
76900;SDS011;65859;43.020;25.096;2023-06-19T04:15:32;12.45;;;8.40;;
76900;SDS011;65859;43.020;25.096;2023-06-19T04:18:00;12.85;;;9.73;;
76900;SDS011;65859;43.020;25.096;2023-06-19T04:20:26;9.80;;;8.73;;
76900;SDS011;65859;43.020;25.096;2023-06-19T04:22:53;14.90;;;9.55;;
76900;SDS011;65859;43.020;25.096;2023-06-19T04:25:19;16.40;;;9.48;;
76900;SDS011;65859;43.020;25.096;2023-06-19T04:27:45;10.85;;;9.45;;
76900;SDS011;65859;43.020;25.096;2023-06-19T04:30:11;12.75;;;9.82;;
76900;SDS011;65859;43.020;25.096;2023-06-19T04:32:38;12.57;;;9.40;;
76900;SDS011;65859;43.020;25.096;2023-06-19T04:35:06;13.43;;;9.35;;
76900;SDS011;65859;43.020;25.096;2023-06-19T04:37:33;12.95;;;9.95;;
76900;SDS011;65859;43.020;25.096;2023-06-19T04:39:59;14.25;;;10.02;;
76900;SDS011;65859;43.020;25.096;2023-06-19T04:42:26;15.60;;;10.07;;
76900;SDS011;65859;43.020;25.096;2023-06-19T04:44:52;13.73;;;9.50;;
76900;SDS011;65859;43.020;25.096;2023-06-19T04:47:21;12.52;;;9.07;;
76900;SDS011;65859;43.020;25.096;2023-06-19T04:49:48;9.65;;;8.65;;
76900;SDS011;65859;43.020;25.096;2023-06-19T04:52:15;9.63;;;8.40;;
76900;SDS011;65859;43.020;25.096;2023-06-19T04:54:41;11.88;;;10.10;;
76900;SDS011;65859;43.020;25.096;2023-06-19T04:57:07;11.95;;;9.75;;
76900;SDS011;65859;43.020;25.096;2023-06-19T04:59:34;15.02;;;8.73;;
76900;SDS011;65859;43.020;25.096;2023-06-19T05:02:00;10.63;;;7.75;;
76900;SDS011;65859;43.020;25.096;2023-06-19T05:04:26;10.88;;;7.78;;
76900;SDS011;65859;43.020;25.096;2023-06-19T05:06:57;12.45;;;7.82;;
76900;SDS011;65859;43.020;25.096;2023-06-19T05:09:24;13.45;;;7.35;;
76900;SDS011;65859;43.020;25.096;2023-06-19T05:11:51;9.45;;;6.38;;
76900;SDS011;65859;43.020;25.096;2023-06-19T05:14:17;8.98;;;7.53;;
76900;SDS011;65859;43.020;25.096;2023-06-19T05:16:43;9.65;;;7.22;;
76900;SDS011;65859;43.020;25.096;2023-06-19T05:19:09;7.28;;;6.40;;
76900;SDS011;65859;43.020;25.096;2023-06-19T05:21:36;11.75;;;7.00;;
76900;SDS011;65859;43.020;25.096;2023-06-19T05:24:02;10.43;;;6.78;;
76900;SDS011;65859;43.020;25.096;2023-06-19T05:26:28;9.10;;;6.80;;
76900;SDS011;65859;43.020;25.096;2023-06-19T05:28:55;11.32;;;7.07;;
76900;SDS011;65859;43.020;25.096;2023-06-19T05:31:21;7.72;;;6.80;;
76900;SDS011;65859;43.020;25.096;2023-06-19T05:33:47;7.30;;;6.25;;
76900;SDS011;65859;43.020;25.096;2023-06-19T05:36:13;6.93;;;6.32;;
76900;SDS011;65859;43.020;25.096;2023-06-19T05:38:40;11.02;;;6.22;;
76900;SDS011;65859;43.020;25.096;2023-06-19T05:41:06;7.97;;;6.45;;
76900;SDS011;65859;43.020;25.096;2023-06-19T05:43:32;7.38;;;6.63;;
76900;SDS011;65859;43.020;25.096;2023-06-19T05:45:58;10.57;;;6.90;;
76900;SDS011;65859;43.020;25.096;2023-06-19T05:48:27;9.63;;;6.75;;
76900;SDS011;65859;43.020;25.096;2023-06-19T05:50:53;7.20;;;6.20;;
76900;SDS011;65859;43.020;25.096;2023-06-19T05:53:21;9.45;;;6.10;;
76900;SDS011;65859;43.020;25.096;2023-06-19T05:55:47;9.80;;;6.80;;
76900;SDS011;65859;43.020;25.096;2023-06-19T05:58:13;7.80;;;6.32;;
76900;SDS011;65859;43.020;25.096;2023-06-19T06:00:40;9.40;;;6.90;;
76900;SDS011;65859;43.020;25.096;2023-06-19T06:03:06;9.65;;;7.28;;
76900;SDS011;65859;43.020;25.096;2023-06-19T06:05:32;7.78;;;7.07;;
76900;SDS011;65859;43.020;25.096;2023-06-19T06:08:01;9.90;;;6.65;;
76900;SDS011;65859;43.020;25.096;2023-06-19T06:10:28;8.88;;;7.65;;
76900;SDS011;65859;43.020;25.096;2023-06-19T06:12:54;5.90;;;5.30;;
76900;SDS011;65859;43.020;25.096;2023-06-19T06:15:20;7.00;;;5.90;;
76900;SDS011;65859;43.020;25.096;2023-06-19T06:17:46;7.75;;;5.90;;
76900;SDS011;65859;43.020;25.096;2023-06-19T06:20:13;8.27;;;5.55;;
76900;SDS011;65859;43.020;25.096;2023-06-19T06:22:39;10.13;;;5.28;;
76900;SDS011;65859;43.020;25.096;2023-06-19T06:25:07;5.60;;;4.50;;
76900;SDS011;65859;43.020;25.096;2023-06-19T06:27:37;8.38;;;6.18;;
76900;SDS011;65859;43.020;25.096;2023-06-19T06:30:04;9.63;;;5.28;;
76900;SDS011;65859;43.020;25.096;2023-06-19T06:32:30;7.07;;;5.75;;
76900;SDS011;65859;43.020;25.096;2023-06-19T06:34:57;7.05;;;4.75;;
76900;SDS011;65859;43.020;25.096;2023-06-19T06:37:23;10.30;;;4.85;;
76900;SDS011;65859;43.020;25.096;2023-06-19T06:39:50;5.50;;;4.88;;
76900;SDS011;65859;43.020;25.096;2023-06-19T06:42:17;5.47;;;4.97;;
76900;SDS011;65859;43.020;25.096;2023-06-19T06:44:43;7.13;;;5.35;;
76900;SDS011;65859;43.020;25.096;2023-06-19T06:47:10;5.40;;;4.35;;
76900;SDS011;65859;43.020;25.096;2023-06-19T06:49:36;8.48;;;4.43;;
76900;SDS011;65859;43.020;25.096;2023-06-19T06:52:06;4.97;;;4.32;;
76900;SDS011;65859;43.020;25.096;2023-06-19T06:54:33;5.40;;;4.93;;
76900;SDS011;65859;43.020;25.096;2023-06-19T06:57:01;6.18;;;4.90;;
76900;SDS011;65859;43.020;25.096;2023-06-19T06:59:27;6.57;;;5.53;;
76900;SDS011;65859;43.020;25.096;2023-06-19T07:01:54;9.68;;;5.40;;
76900;SDS011;65859;43.020;25.096;2023-06-19T07:04:21;5.88;;;4.68;;
76900;SDS011;65859;43.020;25.096;2023-06-19T07:06:48;8.52;;;5.60;;
76900;SDS011;65859;43.020;25.096;2023-06-19T07:09:15;8.27;;;5.30;;
76900;SDS011;65859;43.020;25.096;2023-06-19T07:11:41;6.55;;;4.78;;
76900;SDS011;65859;43.020;25.096;2023-06-19T07:14:07;6.72;;;5.03;;
76900;SDS011;65859;43.020;25.096;2023-06-19T07:16:33;6.70;;;5.20;;
76900;SDS011;65859;43.020;25.096;2023-06-19T07:19:00;5.43;;;4.72;;
76900;SDS011;65859;43.020;25.096;2023-06-19T07:21:27;7.97;;;5.13;;
76900;SDS011;65859;43.020;25.096;2023-06-19T07:23:55;6.95;;;5.35;;
76900;SDS011;65859;43.020;25.096;2023-06-19T07:26:21;5.55;;;4.38;;
76900;SDS011;65859;43.020;25.096;2023-06-19T07:28:49;5.82;;;4.85;;
76900;SDS011;65859;43.020;25.096;2023-06-19T07:31:15;5.30;;;4.68;;
76900;SDS011;65859;43.020;25.096;2023-06-19T07:33:42;6.45;;;4.82;;
76900;SDS011;65859;43.020;25.096;2023-06-19T07:36:08;7.13;;;4.97;;
76900;SDS011;65859;43.020;25.096;2023-06-19T07:38:39;6.03;;;5.53;;
76900;SDS011;65859;43.020;25.096;2023-06-19T07:41:05;5.38;;;4.88;;
76900;SDS011;65859;43.020;25.096;2023-06-19T07:43:34;8.30;;;4.88;;
76900;SDS011;65859;43.020;25.096;2023-06-19T07:46:01;7.03;;;4.80;;
76900;SDS011;65859;43.020;25.096;2023-06-19T07:48:28;5.60;;;5.05;;
76900;SDS011;65859;43.020;25.096;2023-06-19T07:50:54;5.38;;;4.80;;
76900;SDS011;65859;43.020;25.096;2023-06-19T07:53:21;5.18;;;4.68;;
76900;SDS011;65859;43.020;25.096;2023-06-19T07:55:47;6.60;;;5.90;;
76900;SDS011;65859;43.020;25.096;2023-06-19T07:58:13;6.40;;;5.75;;
76900;SDS011;65859;43.020;25.096;2023-06-19T08:00:41;6.07;;;5.43;;
76900;SDS011;65859;43.020;25.096;2023-06-19T08:03:07;6.60;;;5.95;;
76900;SDS011;65859;43.020;25.096;2023-06-19T08:05:33;6.85;;;5.55;;
76900;SDS011;65859;43.020;25.096;2023-06-19T08:08:00;9.82;;;5.60;;
76900;SDS011;65859;43.020;25.096;2023-06-19T08:10:26;6.35;;;5.68;;
76900;SDS011;65859;43.020;25.096;2023-06-19T08:12:53;7.07;;;5.35;;
76900;SDS011;65859;43.020;25.096;2023-06-19T08:15:19;6.45;;;5.60;;
76900;SDS011;65859;43.020;25.096;2023-06-19T08:17:45;5.82;;;5.22;;
76900;SDS011;65859;43.020;25.096;2023-06-19T08:20:12;7.07;;;5.32;;
76900;SDS011;65859;43.020;25.096;2023-06-19T08:22:38;7.35;;;5.57;;
76900;SDS011;65859;43.020;25.096;2023-06-19T08:25:04;10.20;;;6.28;;
76900;SDS011;65859;43.020;25.096;2023-06-19T08:27:31;8.52;;;5.88;;
76900;SDS011;65859;43.020;25.096;2023-06-19T08:29:57;5.60;;;5.10;;
76900;SDS011;65859;43.020;25.096;2023-06-19T08:32:25;5.85;;;5.35;;
76900;SDS011;65859;43.020;25.096;2023-06-19T08:34:52;6.15;;;5.63;;
76900;SDS011;65859;43.020;25.096;2023-06-19T08:37:18;6.65;;;5.07;;
76900;SDS011;65859;43.020;25.096;2023-06-19T08:39:44;7.50;;;5.95;;
76900;SDS011;65859;43.020;25.096;2023-06-19T08:42:11;6.30;;;5.70;;
76900;SDS011;65859;43.020;25.096;2023-06-19T08:44:37;8.85;;;6.13;;
76900;SDS011;65859;43.020;25.096;2023-06-19T08:47:03;9.13;;;5.88;;
76900;SDS011;65859;43.020;25.096;2023-06-19T08:49:31;6.45;;;5.78;;
76900;SDS011;65859;43.020;25.096;2023-06-19T08:52:01;6.90;;;6.20;;
76900;SDS011;65859;43.020;25.096;2023-06-19T08:54:28;11.05;;;5.70;;
76900;SDS011;65859;43.020;25.096;2023-06-19T08:56:55;7.05;;;6.35;;
76900;SDS011;65859;43.020;25.096;2023-06-19T08:59:21;22.00;;;19.27;;
76900;SDS011;65859;43.020;25.096;2023-06-19T09:01:48;125.43;;;111.63;;
76900;SDS011;65859;43.020;25.096;2023-06-19T09:04:29;28.33;;;25.08;;
76900;SDS011;65859;43.020;25.096;2023-06-19T09:06:59;17.08;;;15.00;;
76900;SDS011;65859;43.020;25.096;2023-06-19T09:09:27;19.88;;;15.00;;
76900;SDS011;65859;43.020;25.096;2023-06-19T09:12:04;22.85;;;19.35;;
76900;SDS011;65859;43.020;25.096;2023-06-19T09:14:40;26.10;;;19.33;;
76900;SDS011;65859;43.020;25.096;2023-06-19T09:17:10;35.38;;;31.48;;
76900;SDS011;65859;43.020;25.096;2023-06-19T09:19:37;13.85;;;10.38;;
76900;SDS011;65859;43.020;25.096;2023-06-19T09:22:12;70.47;;;62.47;;
76900;SDS011;65859;43.020;25.096;2023-06-19T09:24:39;19.15;;;17.05;;
76900;SDS011;65859;43.020;25.096;2023-06-19T09:27:24;17.98;;;12.70;;
76900;SDS011;65859;43.020;25.096;2023-06-19T09:29:50;16.42;;;14.73;;
76900;SDS011;65859;43.020;25.096;2023-06-19T09:32:21;10.88;;;8.50;;
76900;SDS011;65859;43.020;25.096;2023-06-19T09:34:54;14.55;;;13.10;;
76900;SDS011;65859;43.020;25.096;2023-06-19T09:37:25;20.08;;;17.85;;
76900;SDS011;65859;43.020;25.096;2023-06-19T09:39:57;69.70;;;60.95;;
76900;SDS011;65859;43.020;25.096;2023-06-19T09:42:32;14.20;;;12.05;;
76900;SDS011;65859;43.020;25.096;2023-06-19T09:45:01;10.85;;;6.68;;
76900;SDS011;65859;43.020;25.096;2023-06-19T09:47:32;7.78;;;5.10;;
76900;SDS011;65859;43.020;25.096;2023-06-19T09:50:02;7.25;;;4.82;;
76900;SDS011;65859;43.020;25.096;2023-06-19T09:52:29;5.90;;;5.30;;
76900;SDS011;65859;43.020;25.096;2023-06-19T09:54:56;5.57;;;5.05;;
76900;SDS011;65859;43.020;25.096;2023-06-19T09:57:25;5.07;;;4.68;;
76900;SDS011;65859;43.020;25.096;2023-06-19T09:59:55;6.68;;;4.47;;
76900;SDS011;65859;43.020;25.096;2023-06-19T10:02:24;5.05;;;4.55;;
76900;SDS011;65859;43.020;25.096;2023-06-19T10:04:53;5.38;;;4.88;;
76900;SDS011;65859;43.020;25.096;2023-06-19T10:07:23;5.95;;;4.88;;
76900;SDS011;65859;43.020;25.096;2023-06-19T10:15:22;6.00;;;5.15;;
76900;SDS011;65859;43.020;25.096;2023-06-19T10:17:50;5.82;;;4.82;;
76900;SDS011;65859;43.020;25.096;2023-06-19T10:20:23;7.30;;;4.95;;
76900;SDS011;65859;43.020;25.096;2023-06-19T10:23:06;5.50;;;4.40;;
76900;SDS011;65859;43.020;25.096;2023-06-19T10:25:37;5.55;;;5.05;;
76900;SDS011;65859;43.020;25.096;2023-06-19T10:28:15;5.57;;;4.97;;
76900;SDS011;65859;43.020;25.096;2023-06-19T10:30:41;5.22;;;4.68;;
76900;SDS011;65859;43.020;25.096;2023-06-19T10:33:08;9.48;;;4.38;;
76900;SDS011;65859;43.020;25.096;2023-06-19T10:35:37;5.75;;;4.85;;
76900;SDS011;65859;43.020;25.096;2023-06-19T10:38:07;5.18;;;4.55;;
76900;SDS011;65859;43.020;25.096;2023-06-19T10:40:35;4.90;;;4.25;;
76900;SDS011;65859;43.020;25.096;2023-06-19T10:43:02;5.32;;;4.82;;
76900;SDS011;65859;43.020;25.096;2023-06-19T10:45:29;6.80;;;4.88;;
76900;SDS011;65859;43.020;25.096;2023-06-19T10:47:55;4.63;;;4.15;;
76900;SDS011;65859;43.020;25.096;2023-06-19T10:50:24;5.30;;;4.80;;
76900;SDS011;65859;43.020;25.096;2023-06-19T10:52:52;8.15;;;5.60;;
76900;SDS011;65859;43.020;25.096;2023-06-19T10:55:22;10.07;;;6.28;;
76900;SDS011;65859;43.020;25.096;2023-06-19T10:57:50;20.42;;;10.25;;
76900;SDS011;65859;43.020;25.096;2023-06-19T11:00:27;12.73;;;7.70;;
76900;SDS011;65859;43.020;25.096;2023-06-19T11:02:55;60.97;;;31.42;;
76900;SDS011;65859;43.020;25.096;2023-06-19T11:05:23;25.02;;;14.68;;
76900;SDS011;65859;43.020;25.096;2023-06-19T11:07:54;23.30;;;9.55;;
76900;SDS011;65859;43.020;25.096;2023-06-19T11:10:23;21.50;;;11.25;;
76900;SDS011;65859;43.020;25.096;2023-06-19T11:12:54;14.77;;;8.13;;
76900;SDS011;65859;43.020;25.096;2023-06-19T11:15:28;68.15;;;35.38;;
76900;SDS011;65859;43.020;25.096;2023-06-19T11:17:56;121.38;;;62.45;;
76900;SDS011;65859;43.020;25.096;2023-06-19T11:20:23;173.82;;;79.13;;
76900;SDS011;65859;43.020;25.096;2023-06-19T11:22:59;134.95;;;65.05;;
76900;SDS011;65859;43.020;25.096;2023-06-19T11:25:38;33.00;;;21.90;;
76900;SDS011;65859;43.020;25.096;2023-06-19T11:28:15;7.13;;;6.40;;
76900;SDS011;65859;43.020;25.096;2023-06-19T11:30:48;9.60;;;7.20;;
76900;SDS011;65859;43.020;25.096;2023-06-19T11:33:22;7.25;;;6.30;;
76900;SDS011;65859;43.020;25.096;2023-06-19T11:35:49;6.38;;;5.78;;
76900;SDS011;65859;43.020;25.096;2023-06-19T11:38:20;6.20;;;5.60;;
76900;SDS011;65859;43.020;25.096;2023-06-19T11:40:51;6.15;;;5.55;;
76900;SDS011;65859;43.020;25.096;2023-06-19T11:43:29;7.70;;;6.47;;
76900;SDS011;65859;43.020;25.096;2023-06-19T11:46:03;10.95;;;6.00;;
76900;SDS011;65859;43.020;25.096;2023-06-19T11:48:31;6.63;;;5.53;;
76900;SDS011;65859;43.020;25.096;2023-06-19T11:50:57;6.32;;;5.72;;
76900;SDS011;65859;43.020;25.096;2023-06-19T11:53:24;5.95;;;5.30;;
76900;SDS011;65859;43.020;25.096;2023-06-19T11:55:50;8.73;;;5.47;;
76900;SDS011;65859;43.020;25.096;2023-06-19T11:58:17;10.20;;;5.15;;
76900;SDS011;65859;43.020;25.096;2023-06-19T12:00:47;6.60;;;5.57;;
76900;SDS011;65859;43.020;25.096;2023-06-19T12:03:13;8.43;;;5.60;;
76900;SDS011;65859;43.020;25.096;2023-06-19T12:05:40;6.80;;;5.50;;
76900;SDS011;65859;43.020;25.096;2023-06-19T12:08:06;6.32;;;5.10;;
76900;SDS011;65859;43.020;25.096;2023-06-19T12:10:33;6.20;;;5.60;;
76900;SDS011;65859;43.020;25.096;2023-06-19T12:13:01;8.38;;;5.57;;
76900;SDS011;65859;43.020;25.096;2023-06-19T12:15:27;6.22;;;5.60;;
76900;SDS011;65859;43.020;25.096;2023-06-19T12:17:53;6.55;;;5.40;;
76900;SDS011;65859;43.020;25.096;2023-06-19T12:20:23;6.40;;;5.10;;
76900;SDS011;65859;43.020;25.096;2023-06-19T12:22:50;5.85;;;5.25;;
76900;SDS011;65859;43.020;25.096;2023-06-19T12:25:16;6.35;;;5.05;;
76900;SDS011;65859;43.020;25.096;2023-06-19T12:27:42;5.43;;;4.53;;
76900;SDS011;65859;43.020;25.096;2023-06-19T12:30:09;5.97;;;5.10;;
76900;SDS011;65859;43.020;25.096;2023-06-19T12:32:35;6.30;;;4.80;;
76900;SDS011;65859;43.020;25.096;2023-06-19T12:35:02;6.05;;;5.05;;
76900;SDS011;65859;43.020;25.096;2023-06-19T12:37:29;5.97;;;5.38;;
76900;SDS011;65859;43.020;25.096;2023-06-19T12:39:55;6.13;;;5.22;;
76900;SDS011;65859;43.020;25.096;2023-06-19T12:42:22;7.90;;;4.45;;
76900;SDS011;65859;43.020;25.096;2023-06-19T12:44:49;7.93;;;5.20;;
76900;SDS011;65859;43.020;25.096;2023-06-19T12:47:15;5.78;;;5.20;;
76900;SDS011;65859;43.020;25.096;2023-06-19T12:49:43;6.82;;;4.88;;
76900;SDS011;65859;43.020;25.096;2023-06-19T12:52:09;6.07;;;4.95;;
76900;SDS011;65859;43.020;25.096;2023-06-19T12:54:35;5.45;;;4.88;;
76900;SDS011;65859;43.020;25.096;2023-06-19T12:57:02;4.75;;;4.25;;
76900;SDS011;65859;43.020;25.096;2023-06-19T12:59:28;5.28;;;4.88;;
76900;SDS011;65859;43.020;25.096;2023-06-19T13:01:55;7.90;;;5.43;;
76900;SDS011;65859;43.020;25.096;2023-06-19T13:04:21;7.53;;;5.50;;
76900;SDS011;65859;43.020;25.096;2023-06-19T13:06:47;7.93;;;4.90;;
76900;SDS011;65859;43.020;25.096;2023-06-19T13:09:13;6.18;;;5.18;;
76900;SDS011;65859;43.020;25.096;2023-06-19T13:11:40;7.07;;;4.90;;
76900;SDS011;65859;43.020;25.096;2023-06-19T13:14:07;5.38;;;4.38;;
76900;SDS011;65859;43.020;25.096;2023-06-19T13:16:35;6.30;;;4.25;;
76900;SDS011;65859;43.020;25.096;2023-06-19T13:19:01;4.90;;;4.38;;
76900;SDS011;65859;43.020;25.096;2023-06-19T13:21:28;6.47;;;4.43;;
76900;SDS011;65859;43.020;25.096;2023-06-19T13:23:55;5.32;;;4.60;;
76900;SDS011;65859;43.020;25.096;2023-06-19T13:26:21;5.75;;;4.97;;
76900;SDS011;65859;43.020;25.096;2023-06-19T13:28:47;5.22;;;4.43;;
76900;SDS011;65859;43.020;25.096;2023-06-19T13:31:14;5.88;;;4.47;;
76900;SDS011;65859;43.020;25.096;2023-06-19T13:33:40;6.10;;;5.10;;
76900;SDS011;65859;43.020;25.096;2023-06-19T13:36:06;5.35;;;4.47;;
76900;SDS011;65859;43.020;25.096;2023-06-19T13:38:32;10.65;;;4.43;;
76900;SDS011;65859;43.020;25.096;2023-06-19T13:40:59;5.90;;;3.90;;
76900;SDS011;65859;43.020;25.096;2023-06-19T13:43:25;4.53;;;4.10;;
76900;SDS011;65859;43.020;25.096;2023-06-19T13:45:51;7.57;;;4.28;;
76900;SDS011;65859;43.020;25.096;2023-06-19T13:48:19;5.82;;;4.65;;
76900;SDS011;65859;43.020;25.096;2023-06-19T13:50:46;5.70;;;5.13;;
76900;SDS011;65859;43.020;25.096;2023-06-19T13:53:12;8.20;;;4.57;;
76900;SDS011;65859;43.020;25.096;2023-06-19T13:55:39;5.97;;;5.05;;
76900;SDS011;65859;43.020;25.096;2023-06-19T13:58:05;8.00;;;5.07;;
76900;SDS011;65859;43.020;25.096;2023-06-19T14:00:31;6.50;;;5.50;;
76900;SDS011;65859;43.020;25.096;2023-06-19T14:03:00;8.68;;;5.20;;
76900;SDS011;65859;43.020;25.096;2023-06-19T14:05:28;5.10;;;4.63;;
76900;SDS011;65859;43.020;25.096;2023-06-19T14:07:54;8.88;;;5.60;;
76900;SDS011;65859;43.020;25.096;2023-06-19T14:10:20;7.72;;;6.10;;
76900;SDS011;65859;43.020;25.096;2023-06-19T14:12:47;9.23;;;6.10;;
76900;SDS011;65859;43.020;25.096;2023-06-19T14:15:13;8.43;;;5.80;;
76900;SDS011;65859;43.020;25.096;2023-06-19T14:17:39;8.07;;;5.70;;
76900;SDS011;65859;43.020;25.096;2023-06-19T14:20:10;7.55;;;5.28;;
76900;SDS011;65859;43.020;25.096;2023-06-19T14:22:36;7.00;;;6.30;;
76900;SDS011;65859;43.020;25.096;2023-06-19T14:25:03;7.35;;;5.50;;
76900;SDS011;65859;43.020;25.096;2023-06-19T14:27:29;10.95;;;5.18;;
76900;SDS011;65859;43.020;25.096;2023-06-19T14:29:56;5.50;;;4.82;;
76900;SDS011;65859;43.020;25.096;2023-06-19T14:32:22;6.45;;;4.80;;
76900;SDS011;65859;43.020;25.096;2023-06-19T14:34:49;8.52;;;4.47;;